Time;durP1;ratioP1;P1;durP2;ratioP2;P2;SDS_P1;SDS_P2;PMS_P1;PMS_P2;Temp;Humidity;BMP_temperature;BMP_pressure;BME280_temperature;BME280_humidity;BME280_pressure;Samples;Min_cycle;Max_cycle;Signal;HPM_P1;HPM_P2
2023/11/06 00:01:33;;;;;;;15.82;13.95;;;;;;;;;;5052748;28;20078;-50
2023/11/06 00:03:59;;;;;;;16.52;13.65;;;;;;;;;;5023135;28;20399;-49
2023/11/06 00:06:26;;;;;;;26.95;14.27;;;;;;;;;;5033024;28;20029;-50
2023/11/06 00:08:54;;;;;;;20.80;14.60;;;;;;;;;;5029594;28;20032;-47
2023/11/06 00:11:20;;;;;;;16.27;14.27;;;;;;;;;;5051981;28;20025;-48
2023/11/06 00:13:46;;;;;;;16.15;13.90;;;;;;;;;;5051002;28;20033;-49
2023/11/06 00:16:12;;;;;;;19.13;14.80;;;;;;;;;;5042314;28;20033;-49
2023/11/06 00:18:38;;;;;;;15.55;12.85;;;;;;;;;;5040574;28;20068;-47
2023/11/06 00:21:06;;;;;;;17.00;14.80;;;;;;;;;;5033570;28;20041;-48
2023/11/06 00:23:32;;;;;;;;;;;;;;;;;;5016125;28;20052;-48
2023/11/06 00:25:58;;;;;;;16.75;14.15;;;;;;;;;;5052670;28;19908;-50
2023/11/06 00:28:24;;;;;;;17.20;12.77;;;;;;;;;;5034990;28;20113;-49
2023/11/06 00:30:51;;;;;;;15.50;13.53;;;;;;;;;;5047915;28;20036;-49
2023/11/06 00:33:17;;;;;;;15.75;13.18;;;;;;;;;;5067796;28;20291;-49
2023/11/06 00:35:43;;;;;;;16.05;13.45;;;;;;;;;;5017702;28;20052;-49
2023/11/06 00:38:11;;;;;;;17.75;13.40;;;;;;;;;;5015260;28;20029;-49
2023/11/06 00:40:37;;;;;;;18.33;13.90;;;;;;;;;;5050680;28;20060;-49
2023/11/06 00:43:03;;;;;;;15.47;13.73;;;;;;;;;;5016117;28;20034;-49
2023/11/06 00:45:29;;;;;;;16.40;14.57;;;;;;;;;;5027039;28;20022;-49
2023/11/06 00:47:56;;;;;;;15.82;13.27;;;;;;;;;;5015055;28;20068;-49
2023/11/06 00:50:23;;;;;;;16.52;12.52;;;;;;;;;;5033868;28;20033;-49
2023/11/06 00:52:49;;;;;;;15.13;13.43;;;;;;;;;;5014722;28;20076;-49
2023/11/06 00:55:15;;;;;;;16.67;12.68;;;;;;;;;;5015913;28;20053;-49
2023/11/06 00:57:41;;;;;;;18.58;12.45;;;;;;;;;;5048787;28;20078;-48
2023/11/06 01:00:10;;;;;;;17.35;13.32;;;;;;;;;;4998668;28;20040;-47
2023/11/06 01:02:37;;;;;;;16.67;14.43;;;;;;;;;;5065818;28;20391;-48
2023/11/06 01:05:05;;;;;;;17.90;12.90;;;;;;;;;;5015007;28;20029;-49
2023/11/06 01:07:31;;;;;;;18.10;13.95;;;;;;;;;;5041617;28;20151;-49
2023/11/06 01:09:58;;;;;;;14.65;12.55;;;;;;;;;;5047560;28;20387;-49
2023/11/06 01:12:24;;;;;;;17.67;14.48;;;;;;;;;;5018044;28;20112;-49
2023/11/06 01:14:51;;;;;;;18.48;14.50;;;;;;;;;;5039751;28;20033;-50
2023/11/06 01:17:17;;;;;;;18.65;15.20;;;;;;;;;;5025024;28;20033;-49
2023/11/06 01:19:43;;;;;;;17.83;13.52;;;;;;;;;;5042706;28;20043;-50
2023/11/06 01:22:09;;;;;;;21.10;14.87;;;;;;;;;;5047526;28;20383;-49
2023/11/06 01:24:35;;;;;;;17.23;13.43;;;;;;;;;;5050554;28;20111;-48
2023/11/06 01:27:02;;;;;;;17.88;13.25;;;;;;;;;;5051918;28;20029;-50
2023/11/06 01:29:28;;;;;;;15.17;12.83;;;;;;;;;;5051868;28;20048;-48
2023/11/06 01:31:54;;;;;;;16.48;12.63;;;;;;;;;;5051747;28;20104;-49
2023/11/06 01:34:20;;;;;;;14.98;11.68;;;;;;;;;;5051653;28;20036;-49
2023/11/06 01:36:47;;;;;;;13.10;11.63;;;;;;;;;;5051694;28;20037;-50
2023/11/06 01:39:13;;;;;;;16.50;13.05;;;;;;;;;;5050818;28;20028;-49
2023/11/06 01:41:40;;;;;;;21.02;11.95;;;;;;;;;;5019142;28;20507;-49
2023/11/06 01:44:07;;;;;;;17.90;13.38;;;;;;;;;;5032991;28;20032;-49
2023/11/06 01:46:33;;;;;;;;;;;;;;;;;;5055046;28;20025;-48
2023/11/06 01:49:00;;;;;;;14.00;11.25;;;;;;;;;;5046498;28;19909;-48
2023/11/06 01:51:27;;;;;;;12.07;10.85;;;;;;;;;;5040733;28;20034;-49
2023/11/06 01:53:55;;;;;;;14.63;12.38;;;;;;;;;;5028029;28;20037;-49
2023/11/06 01:56:21;;;;;;;14.25;11.90;;;;;;;;;;5048831;28;20451;-49
2023/11/06 01:58:47;;;;;;;15.43;12.68;;;;;;;;;;5031576;28;20517;-50
2023/11/06 02:01:13;;;;;;;17.07;11.77;;;;;;;;;;5014225;28;20055;-49
2023/11/06 02:03:40;;;;;;;14.75;11.32;;;;;;;;;;5013459;28;20463;-49
2023/11/06 02:06:07;;;;;;;14.50;11.87;;;;;;;;;;5049204;28;20029;-51
2023/11/06 02:08:33;;;;;;;14.15;10.93;;;;;;;;;;5028868;28;20621;-49
2023/11/06 02:11:03;;;;;;;17.48;12.68;;;;;;;;;;5045264;28;20100;-49
2023/11/06 02:13:30;;;;;;;14.57;12.43;;;;;;;;;;5046535;28;20029;-48
2023/11/06 02:15:56;;;;;;;14.63;11.27;;;;;;;;;;5029829;28;20514;-50
2023/11/06 02:18:25;;;;;;;13.13;11.70;;;;;;;;;;5033356;28;20060;-48
2023/11/06 02:20:55;;;;;;;15.97;12.50;;;;;;;;;;5033926;28;20044;-49
2023/11/06 02:23:28;;;;;;;13.48;10.70;;;;;;;;;;5035856;28;20053;-49
2023/11/06 02:25:54;;;;;;;14.90;12.32;;;;;;;;;;5013515;28;20021;-49
2023/11/06 02:28:21;;;;;;;14.63;12.20;;;;;;;;;;5022968;28;20037;-49
2023/11/06 02:30:52;;;;;;;14.85;12.63;;;;;;;;;;5043490;28;20017;-48
2023/11/06 02:33:19;;;;;;;15.85;12.65;;;;;;;;;;5019918;28;20061;-49
2023/11/06 02:35:45;;;;;;;15.32;12.43;;;;;;;;;;5031175;28;20037;-50
2023/11/06 02:38:11;;;;;;;34.30;12.85;;;;;;;;;;5022258;28;20033;-50
2023/11/06 02:40:38;;;;;;;15.75;11.90;;;;;;;;;;5014492;28;20526;-49
2023/11/06 02:43:04;;;;;;;13.70;11.10;;;;;;;;;;5018489;28;20446;-48
2023/11/06 02:45:30;;;;;;;13.82;11.55;;;;;;;;;;5000273;28;20028;-49
2023/11/06 02:47:56;;;;;;;13.70;11.40;;;;;;;;;;5025824;28;20408;-50
2023/11/06 02:50:22;;;;;;;15.65;11.52;;;;;;;;;;5013770;28;20026;-48
2023/11/06 02:52:48;;;;;;;11.07;9.68;;;;;;;;;;5019972;28;20029;-49
2023/11/06 02:55:15;;;;;;;14.52;12.38;;;;;;;;;;5049247;28;20120;-49
2023/11/06 02:57:41;;;;;;;15.60;11.48;;;;;;;;;;5032974;28;20095;-50
2023/11/06 03:00:11;;;;;;;12.07;9.40;;;;;;;;;;5032309;28;20029;-48
2023/11/06 03:02:38;;;;;;;18.75;15.77;;;;;;;;;;5032494;28;20033;-50
2023/11/06 03:05:06;;;;;;;16.75;14.05;;;;;;;;;;5049586;28;20033;-48
2023/11/06 03:07:32;;;;;;;24.38;13.98;;;;;;;;;;5046149;28;20060;-49
2023/11/06 03:09:58;;;;;;;12.00;8.75;;;;;;;;;;5029273;28;20505;-48
2023/11/06 03:12:24;;;;;;;8.60;7.72;;;;;;;;;;5037559;28;20108;-48
2023/11/06 03:14:51;;;;;;;15.07;10.35;;;;;;;;;;5020267;28;20075;-48
2023/11/06 03:17:17;;;;;;;;;;;;;;;;;;5016329;28;20064;-48
2023/11/06 03:19:44;;;;;;;10.02;8.95;;;;;;;;;;5035019;28;19909;-50
2023/11/06 03:22:10;;;;;;;13.20;9.57;;;;;;;;;;5044219;28;20411;-49
2023/11/06 03:24:36;;;;;;;11.13;9.63;;;;;;;;;;5074184;28;20087;-50
2023/11/06 03:27:02;;;;;;;15.13;11.93;;;;;;;;;;5041008;28;20032;-48
2023/11/06 03:29:28;;;;;;;26.95;11.70;;;;;;;;;;5054222;28;20078;-49
2023/11/06 03:31:54;;;;;;;16.20;12.23;;;;;;;;;;5019577;28;20057;-49
2023/11/06 03:34:21;;;;;;;13.70;11.40;;;;;;;;;;5036304;28;20029;-48
2023/11/06 03:36:47;;;;;;;13.50;11.18;;;;;;;;;;5053974;28;20033;-49
2023/11/06 03:39:13;;;;;;;14.63;11.70;;;;;;;;;;5051445;28;20051;-49
2023/11/06 03:41:40;;;;;;;14.77;12.17;;;;;;;;;;5073894;28;20278;-50
2023/11/06 03:44:06;;;;;;;19.07;12.67;;;;;;;;;;5073853;28;20029;-48
2023/11/06 03:46:32;;;;;;;15.10;12.02;;;;;;;;;;5055871;28;20009;-48
2023/11/06 03:48:59;;;;;;;20.45;12.65;;;;;;;;;;5055917;28;20020;-49
2023/11/06 03:51:26;;;;;;;20.77;13.88;;;;;;;;;;5061617;28;20358;-49
2023/11/06 03:53:52;;;;;;;14.80;12.45;;;;;;;;;;5024886;28;20061;-49
2023/11/06 03:56:18;;;;;;;13.35;11.95;;;;;;;;;;5041583;28;20394;-47
2023/11/06 03:58:44;;;;;;;14.95;12.38;;;;;;;;;;5033780;28;20021;-48
2023/11/06 04:01:10;;;;;;;14.10;12.10;;;;;;;;;;5034666;28;20029;-50
2023/11/06 04:03:37;;;;;;;16.80;13.70;;;;;;;;;;5026792;28;20112;-49
2023/11/06 04:06:03;;;;;;;15.85;13.77;;;;;;;;;;5047108;28;20025;-47
2023/11/06 04:08:29;;;;;;;17.10;14.73;;;;;;;;;;5034749;28;20028;-49
2023/11/06 04:10:56;;;;;;;18.75;16.45;;;;;;;;;;5033274;28;20029;-49
2023/11/06 04:13:22;;;;;;;18.35;15.85;;;;;;;;;;5020058;28;20087;-48
2023/11/06 04:15:48;;;;;;;16.33;13.70;;;;;;;;;;5067604;22;20037;-46
2023/11/06 04:18:14;;;;;;;18.23;14.52;;;;;;;;;;5034176;28;20032;-46
2023/11/06 04:20:43;;;;;;;18.50;14.60;;;;;;;;;;5071023;28;20066;-46
2023/11/06 04:23:10;;;;;;;16.90;13.48;;;;;;;;;;5044634;28;20029;-50
2023/11/06 04:25:37;;;;;;;23.47;19.00;;;;;;;;;;5033133;28;20026;-48
2023/11/06 04:28:04;;;;;;;19.20;14.68;;;;;;;;;;5018503;28;20174;-46
2023/11/06 04:30:31;;;;;;;20.75;16.27;;;;;;;;;;5031013;28;20021;-45
2023/11/06 04:32:58;;;;;;;21.75;15.68;;;;;;;;;;5027474;28;20036;-47
2023/11/06 04:35:25;;;;;;;22.42;16.55;;;;;;;;;;5050911;28;20025;-46
2023/11/06 04:37:51;;;;;;;19.90;14.93;;;;;;;;;;5016236;28;20112;-46
2023/11/06 04:40:19;;;;;;;20.90;15.37;;;;;;;;;;5015226;28;20037;-45
2023/11/06 04:42:47;;;;;;;19.73;16.10;;;;;;;;;;5025536;28;20068;-46
2023/11/06 04:45:13;;;;;;;18.25;14.60;;;;;;;;;;5051148;28;20021;-45
2023/11/06 04:47:40;;;;;;;18.77;15.38;;;;;;;;;;5052172;28;20029;-45
2023/11/06 04:50:07;;;;;;;19.67;15.07;;;;;;;;;;4998937;28;20018;-46
2023/11/06 04:52:33;;;;;;;17.13;14.55;;;;;;;;;;5042912;28;20418;-50
2023/11/06 04:54:59;;;;;;;20.13;16.40;;;;;;;;;;5026356;28;20029;-45
2023/11/06 04:57:26;;;;;;;15.88;14.00;;;;;;;;;;5015278;28;20561;-46
2023/11/06 04:59:52;;;;;;;22.05;15.20;;;;;;;;;;5032040;28;20091;-47
2023/11/06 05:02:19;;;;;;;16.92;14.38;;;;;;;;;;5014796;28;20037;-48
2023/11/06 05:04:45;;;;;;;;;;;;;;;;;;5015403;28;20358;-47
2023/11/06 05:07:11;;;;;;;23.75;14.02;;;;;;;;;;5032373;28;20401;-48
2023/11/06 05:09:37;;;;;;;14.50;12.70;;;;;;;;;;5014680;28;20025;-45
2023/11/06 05:12:04;;;;;;;17.95;14.07;;;;;;;;;;5014670;28;20095;-46
2023/11/06 05:14:30;;;;;;;17.50;13.93;;;;;;;;;;5032298;28;20507;-46
2023/11/06 05:16:56;;;;;;;19.60;14.68;;;;;;;;;;5032142;28;20029;-48
2023/11/06 05:19:22;;;;;;;17.73;14.00;;;;;;;;;;5032232;28;20115;-47
2023/11/06 05:21:48;;;;;;;17.30;13.55;;;;;;;;;;5032225;28;20487;-48
2023/11/06 05:24:15;;;;;;;23.60;14.00;;;;;;;;;;5032175;28;20026;-48
2023/11/06 05:26:41;;;;;;;16.05;13.23;;;;;;;;;;5014381;28;20116;-47
2023/11/06 05:29:07;;;;;;;16.77;13.27;;;;;;;;;;5032074;28;20403;-48
2023/11/06 05:31:34;;;;;;;19.55;15.90;;;;;;;;;;5014272;28;20487;-48
2023/11/06 05:34:00;;;;;;;20.42;15.20;;;;;;;;;;5032098;28;20035;-47
2023/11/06 05:36:28;;;;;;;32.08;23.83;;;;;;;;;;5014275;28;20034;-45
2023/11/06 05:38:55;;;;;;;23.88;18.50;;;;;;;;;;5014117;28;20550;-47
2023/11/06 05:41:21;;;;;;;20.13;14.32;;;;;;;;;;5013521;28;20061;-47
2023/11/06 05:43:49;;;;;;;18.50;14.38;;;;;;;;;;5032235;28;20037;-47
2023/11/06 05:46:15;;;;;;;23.35;15.18;;;;;;;;;;5014141;28;20095;-48
2023/11/06 05:48:42;;;;;;;16.67;12.30;;;;;;;;;;5014095;28;20069;-46
2023/11/06 05:51:08;;;;;;;22.43;14.10;;;;;;;;;;5013904;28;20059;-46
2023/11/06 05:53:35;;;;;;;13.30;10.97;;;;;;;;;;5031741;28;20065;-45
2023/11/06 05:56:01;;;;;;;28.15;11.52;;;;;;;;;;5013972;28;20029;-46
2023/11/06 05:58:27;;;;;;;22.48;11.95;;;;;;;;;;5031692;28;20037;-47
2023/11/06 06:00:53;;;;;;;17.85;10.25;;;;;;;;;;5013915;28;20491;-47
2023/11/06 06:03:20;;;;;;;17.67;11.77;;;;;;;;;;5013860;28;20079;-50
2023/11/06 06:05:47;;;;;;;17.17;11.70;;;;;;;;;;5031489;28;20029;-47
2023/11/06 06:08:15;;;;;;;14.85;11.00;;;;;;;;;;5031570;28;20033;-47
2023/11/06 06:10:41;;;;;;;23.85;20.52;;;;;;;;;;5013728;28;20513;-47
2023/11/06 06:13:08;;;;;;;17.27;13.13;;;;;;;;;;5031777;28;20040;-47
2023/11/06 06:15:34;;;;;;;13.18;11.77;;;;;;;;;;4997658;28;20384;-46
2023/11/06 06:18:01;;;;;;;13.70;10.35;;;;;;;;;;5031925;28;20033;-47
2023/11/06 06:20:27;;;;;;;15.75;10.45;;;;;;;;;;5031625;28;20112;-45
2023/11/06 06:22:53;;;;;;;17.90;13.43;;;;;;;;;;5031457;28;20079;-47
2023/11/06 06:25:20;;;;;;;26.50;23.33;;;;;;;;;;5031692;28;20443;-48
2023/11/06 06:27:46;;;;;;;38.85;25.30;;;;;;;;;;5013755;28;20036;-50
2023/11/06 06:30:15;;;;;;;17.17;14.00;;;;;;;;;;5013830;28;20036;-46
2023/11/06 06:32:42;;;;;;;23.50;12.27;;;;;;;;;;5031141;28;20502;-49
2023/11/06 06:35:09;;;;;;;16.23;12.30;;;;;;;;;;5013592;28;20124;-48
2023/11/06 06:37:35;;;;;;;29.35;22.58;;;;;;;;;;5013665;28;20040;-48
2023/11/06 06:40:06;;;;;;;32.25;17.08;;;;;;;;;;5013559;28;20072;-49
2023/11/06 06:42:32;;;;;;;18.75;16.73;;;;;;;;;;5013507;28;20083;-47
2023/11/06 06:44:58;;;;;;;16.55;14.75;;;;;;;;;;4997368;28;20033;-46
2023/11/06 06:47:24;;;;;;;16.48;14.73;;;;;;;;;;4997179;28;20030;-46
2023/11/06 06:49:51;;;;;;;13.95;12.48;;;;;;;;;;5013553;28;20033;-47
2023/11/06 06:52:17;;;;;;;22.45;15.32;;;;;;;;;;5014354;28;20501;-46
2023/11/06 06:54:43;;;;;;;17.85;14.95;;;;;;;;;;5000993;28;20120;-46
2023/11/06 06:57:09;;;;;;;19.15;15.13;;;;;;;;;;5017237;28;20036;-48
2023/11/06 06:59:36;;;;;;;18.65;15.57;;;;;;;;;;5017329;28;20518;-46
2023/11/06 07:02:02;;;;;;;20.88;18.73;;;;;;;;;;5017034;28;20033;-45
2023/11/06 07:04:28;;;;;;;19.67;14.52;;;;;;;;;;5017132;28;20057;-47
2023/11/06 07:06:54;;;;;;;19.17;16.33;;;;;;;;;;5000802;28;20056;-48
2023/11/06 07:09:21;;;;;;;22.17;19.13;;;;;;;;;;5034691;28;20033;-47
2023/11/06 07:11:48;;;;;;;20.20;16.42;;;;;;;;;;5016892;28;20044;-47
2023/11/06 07:14:15;;;;;;;26.90;24.00;;;;;;;;;;5034595;28;20037;-46
2023/11/06 07:16:41;;;;;;;28.75;24.70;;;;;;;;;;5016586;28;20047;-47
2023/11/06 07:19:07;;;;;;;23.48;19.70;;;;;;;;;;5016846;28;20561;-48
2023/11/06 07:21:35;;;;;;;19.92;16.63;;;;;;;;;;5034667;28;20440;-47
2023/11/06 07:24:01;;;;;;;;;;;;;;;;;;5034866;28;20040;-46
2023/11/06 07:26:28;;;;;;;24.63;18.75;;;;;;;;;;5016732;28;19909;-46
2023/11/06 07:28:54;;;;;;;29.92;21.90;;;;;;;;;;5016574;28;20067;-45
2023/11/06 07:31:21;;;;;;;31.70;25.37;;;;;;;;;;5034258;28;20036;-46
2023/11/06 07:33:47;;;;;;;;;;;;;;;;;;5000734;28;20029;-49
2023/11/06 07:36:13;;;;;;;25.83;21.23;;;;;;;;;;5034129;28;20015;-48
2023/11/06 07:38:40;;;;;;;25.73;19.20;;;;;;;;;;5034268;28;20037;-47
2023/11/06 07:41:10;;;;;;;38.97;34.80;;;;;;;;;;5033971;28;20026;-46
2023/11/06 07:43:36;;;;;;;45.17;39.03;;;;;;;;;;5034087;28;20034;-47
2023/11/06 07:46:02;;;;;;;38.67;33.03;;;;;;;;;;5034013;28;20065;-46
2023/11/06 07:48:29;;;;;;;27.77;22.52;;;;;;;;;;5034045;28;20032;-47
2023/11/06 07:50:56;;;;;;;22.30;18.83;;;;;;;;;;5016021;28;20037;-47
2023/11/06 07:53:23;;;;;;;27.50;21.77;;;;;;;;;;5033943;28;20038;-45
2023/11/06 07:55:49;;;;;;;21.43;18.27;;;;;;;;;;5033867;28;20029;-47
2023/11/06 07:58:15;;;;;;;24.13;19.20;;;;;;;;;;5033826;28;20503;-46
2023/11/06 08:00:41;;;;;;;23.58;20.52;;;;;;;;;;5033697;28;20415;-47
2023/11/06 08:03:08;;;;;;;27.43;23.20;;;;;;;;;;5016003;28;20487;-45
2023/11/06 08:05:36;;;;;;;26.75;23.70;;;;;;;;;;5032937;28;20358;-46
2023/11/06 08:08:03;;;;;;;25.27;22.38;;;;;;;;;;4999774;28;20033;-48
2023/11/06 08:10:31;;;;;;;32.40;25.23;;;;;;;;;;5015785;28;20029;-46
2023/11/06 08:12:59;;;;;;;28.50;24.83;;;;;;;;;;5033454;28;20030;-46
2023/11/06 08:15:25;;;;;;;24.85;21.88;;;;;;;;;;5033345;28;20025;-47
2023/11/06 08:17:52;;;;;;;28.73;21.87;;;;;;;;;;5033539;28;20033;-46
2023/11/06 08:20:18;;;;;;;24.42;21.27;;;;;;;;;;5033381;28;20552;-46
2023/11/06 08:22:44;;;;;;;24.25;21.67;;;;;;;;;;5033225;28;20087;-47
2023/11/06 08:25:14;;;;;;;27.80;23.30;;;;;;;;;;5033269;28;20087;-47
2023/11/06 08:27:40;;;;;;;25.92;21.63;;;;;;;;;;5033317;28;20057;-46
2023/11/06 08:30:09;;;;;;;21.88;18.95;;;;;;;;;;5033287;28;20029;-47
2023/11/06 08:32:36;;;;;;;22.88;19.00;;;;;;;;;;5032985;28;20112;-46
2023/11/06 08:35:05;;;;;;;21.45;18.33;;;;;;;;;;4999003;28;20036;-49
2023/11/06 08:37:32;;;;;;;21.83;17.10;;;;;;;;;;5033010;28;20022;-48
2023/11/06 08:39:58;;;;;;;20.70;16.98;;;;;;;;;;5033031;28;20032;-46
2023/11/06 08:42:25;;;;;;;19.43;15.80;;;;;;;;;;5032858;28;20030;-47
2023/11/06 08:44:51;;;;;;;20.95;16.67;;;;;;;;;;5032908;28;20404;-45
2023/11/06 08:47:19;;;;;;;17.87;14.93;;;;;;;;;;5015098;28;20392;-46
2023/11/06 08:49:45;;;;;;;16.45;14.68;;;;;;;;;;5032785;28;20638;-45
2023/11/06 08:52:11;;;;;;;19.93;16.67;;;;;;;;;;5014909;28;20368;-46
2023/11/06 08:54:39;;;;;;;19.15;15.57;;;;;;;;;;5032804;28;20041;-47
2023/11/06 08:57:05;;;;;;;19.27;15.68;;;;;;;;;;5032644;28;20061;-49
2023/11/06 08:59:31;;;;;;;17.17;15.13;;;;;;;;;;5032683;28;20029;-48
2023/11/06 09:01:57;;;;;;;20.17;15.27;;;;;;;;;;5014728;28;20033;-49
2023/11/06 09:04:24;;;;;;;18.52;15.20;;;;;;;;;;5032605;28;20395;-49
2023/11/06 09:06:50;;;;;;;17.53;14.63;;;;;;;;;;5014650;28;20025;-48
2023/11/06 09:09:16;;;;;;;20.92;15.43;;;;;;;;;;5032463;28;20025;-48
2023/11/06 09:11:43;;;;;;;17.48;13.77;;;;;;;;;;5032305;28;20068;-49
2023/11/06 09:14:09;;;;;;;16.00;13.85;;;;;;;;;;5032899;28;20465;-48
2023/11/06 09:16:36;;;;;;;15.15;11.90;;;;;;;;;;5032201;28;20038;-49
2023/11/06 09:19:03;;;;;;;16.92;13.32;;;;;;;;;;5032285;28;20052;-49
2023/11/06 09:21:29;;;;;;;17.40;12.80;;;;;;;;;;5032121;28;20518;-49
2023/11/06 09:23:55;;;;;;;18.73;12.95;;;;;;;;;;5032122;28;20071;-46
2023/11/06 09:26:21;;;;;;;15.98;12.68;;;;;;;;;;5014542;28;20029;-52
2023/11/06 09:28:50;;;;;;;16.30;13.00;;;;;;;;;;5032145;28;20029;-46
2023/11/06 09:31:20;;;;;;;15.30;12.40;;;;;;;;;;5014307;28;20091;-45
2023/11/06 09:33:55;;;;;;;19.50;13.25;;;;;;;;;;4998007;28;20565;-49
2023/11/06 09:36:21;;;;;;;12.35;11.05;;;;;;;;;;5031883;28;20030;-46
2023/11/06 09:38:50;;;;;;;14.20;11.95;;;;;;;;;;4998046;28;20044;-48
2023/11/06 09:41:17;;;;;;;15.57;11.68;;;;;;;;;;5031583;28;20163;-46
2023/11/06 09:43:43;;;;;;;12.47;10.53;;;;;;;;;;5014179;28;20449;-47
2023/11/06 09:46:10;;;;;;;13.52;11.35;;;;;;;;;;5032022;28;20392;-49
2023/11/06 09:48:37;;;;;;;14.80;12.68;;;;;;;;;;5031913;28;20032;-48
2023/11/06 09:51:11;;;;;;;15.90;13.05;;;;;;;;;;5014108;28;20441;-47
2023/11/06 09:53:42;;;;;;;21.10;13.18;;;;;;;;;;5031710;28;20049;-49
2023/11/06 09:56:11;;;;;;;19.15;13.23;;;;;;;;;;5031730;28;20072;-49
2023/11/06 09:58:41;;;;;;;14.68;13.07;;;;;;;;;;5031712;28;20069;-48
2023/11/06 10:01:08;;;;;;;15.52;13.52;;;;;;;;;;5031446;28;20040;-47
2023/11/06 10:03:37;;;;;;;14.00;12.52;;;;;;;;;;5031484;28;20036;-47
2023/11/06 10:06:04;;;;;;;13.98;12.50;;;;;;;;;;5031543;28;20119;-46
2023/11/06 10:08:30;;;;;;;;;;;;;;;;;;5032030;28;20491;-47
2023/11/06 10:11:03;;;;;;;16.83;12.48;;;;;;;;;;5013793;28;19909;-47
2023/11/06 10:13:30;;;;;;;12.30;10.95;;;;;;;;;;5031655;28;20041;-47
2023/11/06 10:15:56;;;;;;;13.07;11.48;;;;;;;;;;5048043;23;20045;-46
2023/11/06 10:18:25;;;;;;;18.15;10.93;;;;;;;;;;5073554;28;20028;-48
2023/11/06 10:20:55;;;;;;;13.30;10.13;;;;;;;;;;5091400;28;20024;-46
2023/11/06 10:23:34;;;;;;;13.00;10.57;;;;;;;;;;5091541;28;20106;-46
2023/11/06 10:26:10;;;;;;;13.50;10.20;;;;;;;;;;5075135;28;20027;-47
2023/11/06 10:28:37;;;;;;;12.75;9.70;;;;;;;;;;5094833;28;20081;-47
2023/11/06 10:31:04;;;;;;;11.07;9.98;;;;;;;;;;5095494;28;20031;-48
2023/11/06 10:33:30;;;;;;;12.35;8.55;;;;;;;;;;5095591;28;20036;-46
2023/11/06 10:35:57;;;;;;;13.50;9.32;;;;;;;;;;5077363;28;20085;-48
2023/11/06 10:38:30;;;;;;;11.32;8.30;;;;;;;;;;5095614;28;20463;-49
2023/11/06 10:40:57;;;;;;;11.10;7.85;;;;;;;;;;5095290;28;20031;-46
2023/11/06 10:43:23;;;;;;;9.48;8.00;;;;;;;;;;5094180;28;20264;-46
2023/11/06 10:45:50;;;;;;;12.45;7.50;;;;;;;;;;5095246;28;20051;-47
2023/11/06 10:48:18;;;;;;;11.45;9.02;;;;;;;;;;5095696;28;20438;-47
2023/11/06 10:50:45;;;;;;;11.52;8.27;;;;;;;;;;5093862;28;20032;-48
2023/11/06 10:53:12;;;;;;;10.07;8.38;;;;;;;;;;5095275;28;20123;-48
2023/11/06 10:55:39;;;;;;;9.80;8.80;;;;;;;;;;5093942;28;20068;-48
2023/11/06 10:58:08;;;;;;;11.90;8.88;;;;;;;;;;5093893;28;20093;-48
2023/11/06 11:00:35;;;;;;;11.85;8.73;;;;;;;;;;5094817;28;20556;-48
2023/11/06 11:03:01;;;;;;;12.48;8.55;;;;;;;;;;5095048;28;20436;-48
2023/11/06 11:05:31;;;;;;;10.43;7.72;;;;;;;;;;5093772;28;20028;-48
2023/11/06 11:07:58;;;;;;;12.32;7.60;;;;;;;;;;5076936;28;20035;-48
2023/11/06 11:10:29;;;;;;;10.48;7.88;;;;;;;;;;5093663;28;20074;-48
2023/11/06 11:12:59;;;;;;;11.48;7.68;;;;;;;;;;5093656;28;20040;-47
2023/11/06 11:15:25;;;;;;;10.07;7.68;;;;;;;;;;5089257;28;20036;-47
2023/11/06 11:17:57;;;;;;;7.25;6.35;;;;;;;;;;5081430;28;20024;-48
2023/11/06 11:20:24;;;;;;;12.73;7.20;;;;;;;;;;5075615;28;20052;-47
2023/11/06 11:23:03;;;;;;;8.95;7.25;;;;;;;;;;5092573;28;20028;-47
2023/11/06 11:25:48;;;;;;;8.60;6.55;;;;;;;;;;5075094;28;20441;-49
2023/11/06 11:28:14;;;;;;;9.73;6.78;;;;;;;;;;5083543;28;20016;-48
2023/11/06 11:30:41;;;;;;;8.60;6.43;;;;;;;;;;5078601;28;20395;-48
2023/11/06 11:33:07;;;;;;;11.50;5.95;;;;;;;;;;5093910;28;20508;-47
2023/11/06 11:35:39;;;;;;;10.13;8.10;;;;;;;;;;5088193;28;20032;-48
2023/11/06 11:38:07;;;;;;;8.73;6.10;;;;;;;;;;5076166;28;20119;-48
2023/11/06 11:40:44;;;;;;;9.27;6.72;;;;;;;;;;5081814;28;20380;-48
2023/11/06 11:43:23;;;;;;;7.00;5.63;;;;;;;;;;5081435;28;20038;-46
2023/11/06 11:45:49;;;;;;;9.35;6.53;;;;;;;;;;5077356;28;20024;-46
2023/11/06 11:48:16;;;;;;;10.10;6.45;;;;;;;;;;5083346;28;20020;-48
2023/11/06 11:50:43;;;;;;;8.73;6.03;;;;;;;;;;5090393;28;20035;-47
2023/11/06 11:53:32;;;;;;;9.35;5.97;;;;;;;;;;5081244;28;20059;-49
2023/11/06 11:56:04;;;;;;;6.32;5.68;;;;;;;;;;5084515;28;20118;-47
2023/11/06 11:58:43;;;;;;;7.07;4.95;;;;;;;;;;5075886;28;20032;-51
2023/11/06 12:01:09;;;;;;;7.78;5.68;;;;;;;;;;5078637;28;20036;-47
2023/11/06 12:03:36;;;;;;;5.50;4.88;;;;;;;;;;5077172;28;20055;-46
2023/11/06 12:06:06;;;;;;;7.85;5.38;;;;;;;;;;5082817;28;20089;-44
2023/11/06 12:08:36;;;;;;;7.68;5.38;;;;;;;;;;5085914;28;20081;-47
2023/11/06 12:11:10;;;;;;;7.28;5.45;;;;;;;;;;5078965;28;20503;-44
2023/11/06 12:13:38;;;;;;;8.93;5.00;;;;;;;;;;5072074;28;20060;-47
2023/11/06 12:16:08;;;;;;;6.22;4.60;;;;;;;;;;5080591;28;20036;-47
2023/11/06 12:18:36;;;;;;;7.35;4.35;;;;;;;;;;5073828;28;20116;-48
2023/11/06 12:21:05;;;;;;;5.68;4.70;;;;;;;;;;5080295;28;20028;-45
2023/11/06 12:23:36;;;;;;;5.63;4.13;;;;;;;;;;5079288;28;20379;-50
2023/11/06 12:26:12;;;;;;;6.53;4.65;;;;;;;;;;5076770;28;20028;-47
2023/11/06 12:28:45;;;;;;;4.13;3.45;;;;;;;;;;5082786;28;20036;-49
2023/11/06 12:31:15;;;;;;;8.50;4.78;;;;;;;;;;5081388;28;20021;-48
2023/11/06 12:33:42;;;;;;;7.00;4.20;;;;;;;;;;5077861;28;20035;-48
2023/11/06 12:36:25;;;;;;;5.65;3.83;;;;;;;;;;5088924;28;20119;-48
2023/11/06 12:38:52;;;;;;;6.57;4.20;;;;;;;;;;5071684;28;20060;-48
2023/11/06 12:41:27;;;;;;;6.75;4.13;;;;;;;;;;5071161;28;20437;-46
2023/11/06 12:43:53;;;;;;;7.22;4.55;;;;;;;;;;5082690;28;20440;-48
2023/11/06 12:46:19;;;;;;;10.15;4.05;;;;;;;;;;5083874;28;20485;-49
2023/11/06 12:48:46;;;;;;;9.65;4.15;;;;;;;;;;5085450;28;20474;-47
2023/11/06 12:51:14;;;;;;;6.28;3.80;;;;;;;;;;5091461;28;20028;-49
2023/11/06 12:53:46;;;;;;;7.43;3.42;;;;;;;;;;5074865;28;20087;-50
2023/11/06 12:56:14;;;;;;;4.38;3.42;;;;;;;;;;5071889;28;20072;-47
2023/11/06 12:58:42;;;;;;;6.30;3.13;;;;;;;;;;5072332;28;20024;-49
2023/11/06 13:15:10;;;;;;;4.70;3.40;;;;;;;;;;5072202;28;20074;-47
2023/11/06 13:17:37;;;;;;;4.75;3.60;;;;;;;;;;5072552;28;20032;-48
2023/11/06 13:20:13;;;;;;;6.50;3.90;;;;;;;;;;5070876;28;20032;-51
2023/11/06 13:22:41;;;;;;;7.35;4.03;;;;;;;;;;5077307;28;20497;-48
2023/11/06 13:25:07;;;;;;;5.65;3.67;;;;;;;;;;5083662;28;20036;-48
2023/11/06 13:27:33;;;;;;;8.05;3.78;;;;;;;;;;5080452;28;20029;-46
2023/11/06 13:29:59;;;;;;;4.63;3.28;;;;;;;;;;5085725;28;20026;-47
2023/11/06 13:32:26;;;;;;;5.90;2.83;;;;;;;;;;5082857;28;20050;-48
2023/11/06 13:34:52;;;;;;;;;;;;;;;;;;5076810;28;20035;-47
2023/11/06 13:37:19;;;;;;;8.35;3.78;;;;;;;;;;5072000;28;19912;-51
2023/11/06 13:39:45;;;;;;;;;;;;;;;;;;5072325;28;20116;-47
2023/11/06 13:42:11;;;;;;;6.75;3.83;;;;;;;;;;5071495;28;19904;-47
2023/11/06 13:44:37;;;;;;;7.70;3.78;;;;;;;;;;5070342;28;20032;-50
2023/11/06 13:47:04;;;;;;;6.28;3.75;;;;;;;;;;5071629;28;20024;-47
2023/11/06 13:49:30;;;;;;;5.22;4.32;;;;;;;;;;5071739;28;20033;-50
2023/11/06 13:51:56;;;;;;;6.88;3.83;;;;;;;;;;5071582;28;20028;-47
2023/11/06 13:54:32;;;;;;;9.07;4.00;;;;;;;;;;5071766;28;20028;-48
2023/11/06 13:56:59;;;;;;;6.03;3.53;;;;;;;;;;5071593;28;20032;-48
2023/11/06 13:59:28;;;;;;;7.93;4.55;;;;;;;;;;5071667;28;20043;-47
2023/11/06 14:01:56;;;;;;;9.65;3.50;;;;;;;;;;5070687;28;20394;-48
2023/11/06 14:04:22;;;;;;;5.88;3.95;;;;;;;;;;5071624;28;20016;-51
2023/11/06 14:06:53;;;;;;;12.20;4.85;;;;;;;;;;5071548;28;20035;-47
2023/11/06 14:11:58;;;;;;;6.70;3.78;;;;;;;;;;5069991;28;20036;-48
2023/11/06 14:14:24;;;;;;;5.32;3.72;;;;;;;;;;5071521;28;20052;-47
2023/11/06 14:16:55;;;;;;;10.25;4.80;;;;;;;;;;5071348;28;20040;-48
2023/11/06 14:19:26;;;;;;;6.85;3.88;;;;;;;;;;5080677;28;20210;-52
2023/11/06 14:21:53;;;;;;;9.57;4.13;;;;;;;;;;5072639;28;20032;-48
2023/11/06 14:24:19;;;;;;;6.55;3.65;;;;;;;;;;5072399;28;20455;-51
2023/11/06 14:26:45;;;;;;;;;;;;;;;;;;5090823;28;20024;-51
2023/11/06 14:29:12;;;;;;;9.98;4.45;;;;;;;;;;5080690;28;20374;-49
2023/11/06 14:31:38;;;;;;;6.75;4.30;;;;;;;;;;5074100;28;20576;-50
2023/11/06 14:34:05;;;;;;;8.90;4.10;;;;;;;;;;5071458;28;20406;-49
2023/11/06 14:36:32;;;;;;;8.85;4.25;;;;;;;;;;5071154;28;20020;-53
2023/11/06 14:38:59;;;;;;;7.95;4.13;;;;;;;;;;5071365;28;20024;-48
2023/11/06 14:41:26;;;;;;;11.68;7.60;;;;;;;;;;5071004;28;20028;-50
2023/11/06 14:43:54;;;;;;;8.85;6.20;;;;;;;;;;5072386;28;20410;-53